sensor_id;sensor_type;location;lat;lon;timestamp;P1;durP1;ratioP1;P2;durP2;ratioP2
21959;SDS011;11144;43.030;25.108;2022-11-20T00:00:02;16.17;;;8.75;;
21959;SDS011;11144;43.030;25.108;2022-11-20T00:01:37;17.00;;;8.90;;
21959;SDS011;11144;43.030;25.108;2022-11-20T00:03:12;18.25;;;9.55;;
21959;SDS011;11144;43.030;25.108;2022-11-20T00:04:44;12.98;;;7.93;;
21959;SDS011;11144;43.030;25.108;2022-11-20T00:06:18;14.23;;;8.48;;
21959;SDS011;11144;43.030;25.108;2022-11-20T00:07:52;16.15;;;8.25;;
21959;SDS011;11144;43.030;25.108;2022-11-20T00:09:25;17.65;;;9.98;;
21959;SDS011;11144;43.030;25.108;2022-11-20T00:11:01;19.00;;;8.85;;
21959;SDS011;11144;43.030;25.108;2022-11-20T00:12:35;17.88;;;8.15;;
21959;SDS011;11144;43.030;25.108;2022-11-20T00:14:08;12.10;;;7.28;;
21959;SDS011;11144;43.030;25.108;2022-11-20T00:15:42;12.80;;;6.43;;
21959;SDS011;11144;43.030;25.108;2022-11-20T00:17:16;13.07;;;6.32;;
21959;SDS011;11144;43.030;25.108;2022-11-20T00:18:50;12.85;;;6.80;;
21959;SDS011;11144;43.030;25.108;2022-11-20T00:20:24;11.75;;;6.75;;
21959;SDS011;11144;43.030;25.108;2022-11-20T00:21:57;13.55;;;7.03;;
21959;SDS011;11144;43.030;25.108;2022-11-20T00:23:30;12.30;;;6.57;;
21959;SDS011;11144;43.030;25.108;2022-11-20T00:25:04;14.93;;;6.05;;
21959;SDS011;11144;43.030;25.108;2022-11-20T00:26:38;17.75;;;6.60;;
21959;SDS011;11144;43.030;25.108;2022-11-20T00:28:10;13.52;;;6.95;;
21959;SDS011;11144;43.030;25.108;2022-11-20T00:29:44;13.98;;;6.35;;
21959;SDS011;11144;43.030;25.108;2022-11-20T00:31:18;12.52;;;6.32;;
21959;SDS011;11144;43.030;25.108;2022-11-20T00:32:50;11.75;;;5.85;;
21959;SDS011;11144;43.030;25.108;2022-11-20T00:34:25;11.00;;;6.05;;
21959;SDS011;11144;43.030;25.108;2022-11-20T00:36:01;12.52;;;6.57;;
21959;SDS011;11144;43.030;25.108;2022-11-20T00:37:35;16.60;;;6.50;;
21959;SDS011;11144;43.030;25.108;2022-11-20T00:39:08;12.60;;;6.72;;
21959;SDS011;11144;43.030;25.108;2022-11-20T00:40:41;10.88;;;6.35;;
21959;SDS011;11144;43.030;25.108;2022-11-20T00:42:14;11.82;;;5.97;;
21959;SDS011;11144;43.030;25.108;2022-11-20T00:43:48;14.93;;;7.32;;
21959;SDS011;11144;43.030;25.108;2022-11-20T00:45:21;17.75;;;8.30;;
21959;SDS011;11144;43.030;25.108;2022-11-20T00:46:54;14.50;;;7.45;;
21959;SDS011;11144;43.030;25.108;2022-11-20T00:48:27;14.57;;;7.60;;
21959;SDS011;11144;43.030;25.108;2022-11-20T00:50:02;16.38;;;7.43;;
21959;SDS011;11144;43.030;25.108;2022-11-20T00:51:36;16.08;;;8.32;;
21959;SDS011;11144;43.030;25.108;2022-11-20T00:53:09;15.93;;;7.72;;
21959;SDS011;11144;43.030;25.108;2022-11-20T00:54:42;14.75;;;8.20;;
21959;SDS011;11144;43.030;25.108;2022-11-20T00:56:15;14.70;;;8.20;;
21959;SDS011;11144;43.030;25.108;2022-11-20T00:57:50;18.42;;;8.52;;
21959;SDS011;11144;43.030;25.108;2022-11-20T00:59:24;20.67;;;7.70;;
21959;SDS011;11144;43.030;25.108;2022-11-20T01:00:59;16.73;;;7.72;;
21959;SDS011;11144;43.030;25.108;2022-11-20T01:02:32;15.55;;;8.00;;
21959;SDS011;11144;43.030;25.108;2022-11-20T01:04:05;14.65;;;7.88;;
21959;SDS011;11144;43.030;25.108;2022-11-20T01:05:40;14.57;;;7.47;;
21959;SDS011;11144;43.030;25.108;2022-11-20T01:07:12;14.75;;;8.00;;
21959;SDS011;11144;43.030;25.108;2022-11-20T01:08:45;15.27;;;8.48;;
21959;SDS011;11144;43.030;25.108;2022-11-20T01:10:19;22.10;;;8.13;;
21959;SDS011;11144;43.030;25.108;2022-11-20T01:11:52;18.70;;;9.07;;
21959;SDS011;11144;43.030;25.108;2022-11-20T01:13:26;23.08;;;9.02;;
21959;SDS011;11144;43.030;25.108;2022-11-20T01:15:10;16.35;;;8.25;;
21959;SDS011;11144;43.030;25.108;2022-11-20T01:16:44;16.63;;;8.43;;
21959;SDS011;11144;43.030;25.108;2022-11-20T01:18:19;16.00;;;9.05;;
21959;SDS011;11144;43.030;25.108;2022-11-20T01:19:51;18.30;;;9.48;;
21959;SDS011;11144;43.030;25.108;2022-11-20T01:21:27;15.82;;;8.13;;
21959;SDS011;11144;43.030;25.108;2022-11-20T01:23:01;14.18;;;8.00;;
21959;SDS011;11144;43.030;25.108;2022-11-20T01:24:34;12.65;;;7.53;;
21959;SDS011;11144;43.030;25.108;2022-11-20T01:26:07;17.48;;;9.57;;
21959;SDS011;11144;43.030;25.108;2022-11-20T01:27:42;16.20;;;8.07;;
21959;SDS011;11144;43.030;25.108;2022-11-20T01:29:16;15.52;;;7.47;;
21959;SDS011;11144;43.030;25.108;2022-11-20T01:30:51;18.02;;;9.18;;
21959;SDS011;11144;43.030;25.108;2022-11-20T01:32:24;12.77;;;6.25;;
21959;SDS011;11144;43.030;25.108;2022-11-20T01:34:00;14.05;;;8.23;;
21959;SDS011;11144;43.030;25.108;2022-11-20T01:35:33;18.33;;;7.07;;
21959;SDS011;11144;43.030;25.108;2022-11-20T01:37:08;17.75;;;7.40;;
21959;SDS011;11144;43.030;25.108;2022-11-20T01:38:41;17.45;;;8.95;;
21959;SDS011;11144;43.030;25.108;2022-11-20T01:40:13;15.55;;;7.88;;
21959;SDS011;11144;43.030;25.108;2022-11-20T01:41:47;14.07;;;7.20;;
21959;SDS011;11144;43.030;25.108;2022-11-20T01:43:50;16.83;;;7.28;;
21959;SDS011;11144;43.030;25.108;2022-11-20T01:47:30;16.90;;;7.13;;
21959;SDS011;11144;43.030;25.108;2022-11-20T01:49:08;13.13;;;6.53;;
21959;SDS011;11144;43.030;25.108;2022-11-20T01:50:42;10.02;;;6.00;;
21959;SDS011;11144;43.030;25.108;2022-11-20T01:52:19;12.70;;;5.57;;
21959;SDS011;11144;43.030;25.108;2022-11-20T01:53:55;9.05;;;5.55;;
21959;SDS011;11144;43.030;25.108;2022-11-20T01:55:32;10.10;;;5.95;;
21959;SDS011;11144;43.030;25.108;2022-11-20T01:57:08;11.70;;;5.63;;
21959;SDS011;11144;43.030;25.108;2022-11-20T01:58:44;12.35;;;5.78;;
21959;SDS011;11144;43.030;25.108;2022-11-20T02:00:22;10.10;;;5.63;;
21959;SDS011;11144;43.030;25.108;2022-11-20T02:01:56;9.00;;;4.47;;
21959;SDS011;11144;43.030;25.108;2022-11-20T02:03:29;7.13;;;4.25;;
21959;SDS011;11144;43.030;25.108;2022-11-20T02:05:04;12.95;;;5.35;;
21959;SDS011;11144;43.030;25.108;2022-11-20T02:06:46;8.25;;;4.85;;
21959;SDS011;11144;43.030;25.108;2022-11-20T02:08:23;10.98;;;5.30;;
21959;SDS011;11144;43.030;25.108;2022-11-20T02:09:57;10.32;;;6.25;;
21959;SDS011;11144;43.030;25.108;2022-11-20T02:11:30;8.13;;;5.40;;
21959;SDS011;11144;43.030;25.108;2022-11-20T02:13:04;8.13;;;4.93;;
21959;SDS011;11144;43.030;25.108;2022-11-20T02:14:56;11.52;;;5.47;;
21959;SDS011;11144;43.030;25.108;2022-11-20T02:16:29;10.90;;;4.78;;
21959;SDS011;11144;43.030;25.108;2022-11-20T02:18:04;10.85;;;4.55;;
21959;SDS011;11144;43.030;25.108;2022-11-20T02:19:37;8.32;;;4.40;;
21959;SDS011;11144;43.030;25.108;2022-11-20T02:23:08;9.90;;;5.00;;
21959;SDS011;11144;43.030;25.108;2022-11-20T02:24:46;10.05;;;5.72;;
21959;SDS011;11144;43.030;25.108;2022-11-20T02:26:21;8.05;;;5.00;;
21959;SDS011;11144;43.030;25.108;2022-11-20T02:27:56;9.20;;;4.72;;
21959;SDS011;11144;43.030;25.108;2022-11-20T02:29:31;11.43;;;5.80;;
21959;SDS011;11144;43.030;25.108;2022-11-20T02:31:08;12.43;;;4.88;;
21959;SDS011;11144;43.030;25.108;2022-11-20T02:32:40;11.55;;;5.88;;
21959;SDS011;11144;43.030;25.108;2022-11-20T02:34:13;9.48;;;5.85;;
21959;SDS011;11144;43.030;25.108;2022-11-20T02:35:46;15.38;;;6.20;;
21959;SDS011;11144;43.030;25.108;2022-11-20T02:37:19;12.43;;;5.57;;
21959;SDS011;11144;43.030;25.108;2022-11-20T02:38:53;13.85;;;6.07;;
21959;SDS011;11144;43.030;25.108;2022-11-20T02:40:28;12.82;;;6.25;;
21959;SDS011;11144;43.030;25.108;2022-11-20T02:42:01;11.23;;;6.53;;
21959;SDS011;11144;43.030;25.108;2022-11-20T02:43:34;8.60;;;5.28;;
21959;SDS011;11144;43.030;25.108;2022-11-20T02:45:08;13.65;;;5.85;;
21959;SDS011;11144;43.030;25.108;2022-11-20T02:46:41;13.70;;;6.18;;
21959;SDS011;11144;43.030;25.108;2022-11-20T02:48:14;14.30;;;5.70;;
21959;SDS011;11144;43.030;25.108;2022-11-20T02:49:47;8.20;;;5.45;;
21959;SDS011;11144;43.030;25.108;2022-11-20T02:51:20;12.23;;;5.07;;
21959;SDS011;11144;43.030;25.108;2022-11-20T02:52:53;8.32;;;4.80;;
21959;SDS011;11144;43.030;25.108;2022-11-20T02:54:26;10.00;;;5.80;;
21959;SDS011;11144;43.030;25.108;2022-11-20T02:56:00;12.20;;;4.90;;
21959;SDS011;11144;43.030;25.108;2022-11-20T02:57:33;12.05;;;5.00;;
21959;SDS011;11144;43.030;25.108;2022-11-20T02:59:06;9.15;;;5.75;;
21959;SDS011;11144;43.030;25.108;2022-11-20T03:00:39;7.82;;;5.38;;
21959;SDS011;11144;43.030;25.108;2022-11-20T03:02:12;11.60;;;5.50;;
21959;SDS011;11144;43.030;25.108;2022-11-20T03:03:45;10.40;;;6.20;;
21959;SDS011;11144;43.030;25.108;2022-11-20T03:05:20;8.75;;;5.75;;
21959;SDS011;11144;43.030;25.108;2022-11-20T03:06:53;14.05;;;6.13;;
21959;SDS011;11144;43.030;25.108;2022-11-20T03:08:26;12.40;;;6.53;;
21959;SDS011;11144;43.030;25.108;2022-11-20T03:09:59;12.95;;;6.13;;
21959;SDS011;11144;43.030;25.108;2022-11-20T03:11:34;11.30;;;5.53;;
21959;SDS011;11144;43.030;25.108;2022-11-20T03:13:07;9.00;;;5.60;;
21959;SDS011;11144;43.030;25.108;2022-11-20T03:14:41;11.90;;;5.13;;
21959;SDS011;11144;43.030;25.108;2022-11-20T03:16:14;13.38;;;5.53;;
21959;SDS011;11144;43.030;25.108;2022-11-20T03:17:52;14.32;;;5.28;;
21959;SDS011;11144;43.030;25.108;2022-11-20T03:19:25;10.52;;;4.95;;
21959;SDS011;11144;43.030;25.108;2022-11-20T03:20:58;7.65;;;4.85;;
21959;SDS011;11144;43.030;25.108;2022-11-20T03:22:32;10.65;;;5.50;;
21959;SDS011;11144;43.030;25.108;2022-11-20T03:24:05;11.98;;;5.47;;
21959;SDS011;11144;43.030;25.108;2022-11-20T03:25:39;7.47;;;5.03;;
21959;SDS011;11144;43.030;25.108;2022-11-20T03:27:12;8.52;;;5.47;;
21959;SDS011;11144;43.030;25.108;2022-11-20T03:28:46;9.45;;;6.18;;
21959;SDS011;11144;43.030;25.108;2022-11-20T03:30:21;11.32;;;6.50;;
21959;SDS011;11144;43.030;25.108;2022-11-20T03:32:00;10.75;;;5.88;;
21959;SDS011;11144;43.030;25.108;2022-11-20T03:33:34;13.77;;;6.18;;
21959;SDS011;11144;43.030;25.108;2022-11-20T03:35:07;11.88;;;6.40;;
21959;SDS011;11144;43.030;25.108;2022-11-20T03:36:42;18.00;;;6.97;;
21959;SDS011;11144;43.030;25.108;2022-11-20T03:38:15;15.60;;;6.88;;
21959;SDS011;11144;43.030;25.108;2022-11-20T03:39:48;19.25;;;7.82;;
21959;SDS011;11144;43.030;25.108;2022-11-20T03:41:22;14.05;;;7.47;;
21959;SDS011;11144;43.030;25.108;2022-11-20T03:42:58;15.57;;;7.22;;
21959;SDS011;11144;43.030;25.108;2022-11-20T03:44:30;25.27;;;8.77;;
21959;SDS011;11144;43.030;25.108;2022-11-20T03:46:04;17.27;;;8.13;;
21959;SDS011;11144;43.030;25.108;2022-11-20T03:47:37;16.63;;;8.25;;
21959;SDS011;11144;43.030;25.108;2022-11-20T03:49:10;14.68;;;8.23;;
21959;SDS011;11144;43.030;25.108;2022-11-20T03:50:43;15.82;;;7.57;;
21959;SDS011;11144;43.030;25.108;2022-11-20T03:52:15;11.50;;;7.45;;
21959;SDS011;11144;43.030;25.108;2022-11-20T03:53:49;14.85;;;6.97;;
21959;SDS011;11144;43.030;25.108;2022-11-20T03:55:24;13.40;;;6.78;;
21959;SDS011;11144;43.030;25.108;2022-11-20T03:56:57;14.13;;;7.30;;
21959;SDS011;11144;43.030;25.108;2022-11-20T03:58:32;11.90;;;6.47;;
21959;SDS011;11144;43.030;25.108;2022-11-20T04:00:05;25.40;;;7.50;;
21959;SDS011;11144;43.030;25.108;2022-11-20T04:01:39;13.43;;;6.45;;
21959;SDS011;11144;43.030;25.108;2022-11-20T04:03:19;17.13;;;8.75;;
21959;SDS011;11144;43.030;25.108;2022-11-20T04:04:52;18.17;;;11.00;;
21959;SDS011;11144;43.030;25.108;2022-11-20T04:06:27;22.70;;;11.35;;
21959;SDS011;11144;43.030;25.108;2022-11-20T04:08:01;22.65;;;11.95;;
21959;SDS011;11144;43.030;25.108;2022-11-20T04:09:34;21.90;;;10.88;;
21959;SDS011;11144;43.030;25.108;2022-11-20T04:11:08;19.40;;;9.65;;
21959;SDS011;11144;43.030;25.108;2022-11-20T04:12:43;25.73;;;10.13;;
21959;SDS011;11144;43.030;25.108;2022-11-20T04:14:17;23.92;;;9.30;;
21959;SDS011;11144;43.030;25.108;2022-11-20T04:15:51;24.10;;;10.45;;
21959;SDS011;11144;43.030;25.108;2022-11-20T04:17:24;19.50;;;9.65;;
21959;SDS011;11144;43.030;25.108;2022-11-20T04:18:58;23.58;;;10.23;;
21959;SDS011;11144;43.030;25.108;2022-11-20T04:20:32;27.75;;;11.52;;
21959;SDS011;11144;43.030;25.108;2022-11-20T04:22:06;20.02;;;9.95;;
21959;SDS011;11144;43.030;25.108;2022-11-20T04:23:39;17.83;;;9.25;;
21959;SDS011;11144;43.030;25.108;2022-11-20T04:25:12;24.30;;;10.18;;
21959;SDS011;11144;43.030;25.108;2022-11-20T04:26:45;23.25;;;10.02;;
21959;SDS011;11144;43.030;25.108;2022-11-20T04:28:17;23.15;;;10.18;;
21959;SDS011;11144;43.030;25.108;2022-11-20T04:29:52;20.65;;;10.20;;
21959;SDS011;11144;43.030;25.108;2022-11-20T04:31:25;20.60;;;10.25;;
21959;SDS011;11144;43.030;25.108;2022-11-20T04:33:00;25.35;;;10.95;;
21959;SDS011;11144;43.030;25.108;2022-11-20T04:34:33;28.17;;;14.73;;
21959;SDS011;11144;43.030;25.108;2022-11-20T04:36:07;25.73;;;13.13;;
21959;SDS011;11144;43.030;25.108;2022-11-20T04:37:42;21.63;;;10.52;;
21959;SDS011;11144;43.030;25.108;2022-11-20T04:39:16;20.80;;;11.43;;
21959;SDS011;11144;43.030;25.108;2022-11-20T04:40:49;25.05;;;12.52;;
21959;SDS011;11144;43.030;25.108;2022-11-20T04:42:22;20.38;;;11.63;;
21959;SDS011;11144;43.030;25.108;2022-11-20T04:44:01;26.10;;;11.13;;
21959;SDS011;11144;43.030;25.108;2022-11-20T04:45:38;23.45;;;11.15;;
21959;SDS011;11144;43.030;25.108;2022-11-20T04:47:11;17.30;;;9.32;;
21959;SDS011;11144;43.030;25.108;2022-11-20T04:48:44;19.85;;;9.77;;
21959;SDS011;11144;43.030;25.108;2022-11-20T04:50:18;19.40;;;9.85;;
21959;SDS011;11144;43.030;25.108;2022-11-20T04:51:52;21.35;;;10.55;;
21959;SDS011;11144;43.030;25.108;2022-11-20T04:53:26;23.33;;;10.48;;
21959;SDS011;11144;43.030;25.108;2022-11-20T04:54:59;19.02;;;9.57;;
21959;SDS011;11144;43.030;25.108;2022-11-20T04:56:32;16.77;;;8.52;;
21959;SDS011;11144;43.030;25.108;2022-11-20T04:58:04;17.92;;;9.57;;
21959;SDS011;11144;43.030;25.108;2022-11-20T04:59:38;18.83;;;9.25;;
21959;SDS011;11144;43.030;25.108;2022-11-20T05:01:13;19.00;;;10.63;;
21959;SDS011;11144;43.030;25.108;2022-11-20T05:02:48;21.85;;;10.85;;
21959;SDS011;11144;43.030;25.108;2022-11-20T05:04:21;19.58;;;10.73;;
21959;SDS011;11144;43.030;25.108;2022-11-20T05:05:53;22.58;;;9.77;;
21959;SDS011;11144;43.030;25.108;2022-11-20T05:07:26;20.65;;;10.35;;
21959;SDS011;11144;43.030;25.108;2022-11-20T05:09:00;20.00;;;10.18;;
21959;SDS011;11144;43.030;25.108;2022-11-20T05:10:32;20.85;;;9.18;;
21959;SDS011;11144;43.030;25.108;2022-11-20T05:12:06;23.25;;;9.25;;
21959;SDS011;11144;43.030;25.108;2022-11-20T05:13:40;23.25;;;13.23;;
21959;SDS011;11144;43.030;25.108;2022-11-20T05:15:13;22.95;;;10.65;;
21959;SDS011;11144;43.030;25.108;2022-11-20T05:16:48;22.33;;;10.20;;
21959;SDS011;11144;43.030;25.108;2022-11-20T05:18:21;26.95;;;10.63;;
21959;SDS011;11144;43.030;25.108;2022-11-20T05:19:54;22.10;;;11.68;;
21959;SDS011;11144;43.030;25.108;2022-11-20T05:21:29;17.83;;;9.50;;
21959;SDS011;11144;43.030;25.108;2022-11-20T05:23:03;20.92;;;10.43;;
21959;SDS011;11144;43.030;25.108;2022-11-20T05:24:35;16.05;;;8.95;;
21959;SDS011;11144;43.030;25.108;2022-11-20T05:26:12;15.30;;;8.95;;
21959;SDS011;11144;43.030;25.108;2022-11-20T05:27:45;20.33;;;8.85;;
21959;SDS011;11144;43.030;25.108;2022-11-20T05:29:18;26.48;;;9.63;;
21959;SDS011;11144;43.030;25.108;2022-11-20T05:30:52;20.90;;;10.77;;
21959;SDS011;11144;43.030;25.108;2022-11-20T05:32:26;22.95;;;11.57;;
21959;SDS011;11144;43.030;25.108;2022-11-20T05:34:00;23.05;;;10.95;;
21959;SDS011;11144;43.030;25.108;2022-11-20T05:35:33;21.83;;;11.32;;
21959;SDS011;11144;43.030;25.108;2022-11-20T05:37:05;28.58;;;12.80;;
21959;SDS011;11144;43.030;25.108;2022-11-20T05:38:38;27.50;;;12.23;;
21959;SDS011;11144;43.030;25.108;2022-11-20T05:40:12;23.33;;;11.48;;
21959;SDS011;11144;43.030;25.108;2022-11-20T05:41:45;26.88;;;12.05;;
21959;SDS011;11144;43.030;25.108;2022-11-20T05:43:39;21.98;;;10.93;;
21959;SDS011;11144;43.030;25.108;2022-11-20T05:45:14;25.25;;;11.35;;
21959;SDS011;11144;43.030;25.108;2022-11-20T05:46:47;21.73;;;11.68;;
21959;SDS011;11144;43.030;25.108;2022-11-20T05:48:22;33.88;;;16.73;;
21959;SDS011;11144;43.030;25.108;2022-11-20T05:49:55;33.00;;;16.98;;
21959;SDS011;11144;43.030;25.108;2022-11-20T05:51:28;30.67;;;17.95;;
21959;SDS011;11144;43.030;25.108;2022-11-20T05:53:01;42.85;;;22.48;;
21959;SDS011;11144;43.030;25.108;2022-11-20T05:54:33;55.95;;;29.23;;
21959;SDS011;11144;43.030;25.108;2022-11-20T05:56:08;44.03;;;25.60;;
21959;SDS011;11144;43.030;25.108;2022-11-20T05:57:43;50.30;;;28.30;;
21959;SDS011;11144;43.030;25.108;2022-11-20T05:59:16;65.13;;;35.97;;
21959;SDS011;11144;43.030;25.108;2022-11-20T06:00:50;49.80;;;29.88;;
21959;SDS011;11144;43.030;25.108;2022-11-20T06:02:23;54.05;;;29.65;;
21959;SDS011;11144;43.030;25.108;2022-11-20T06:03:58;55.20;;;30.38;;
21959;SDS011;11144;43.030;25.108;2022-11-20T06:05:33;41.30;;;22.13;;
21959;SDS011;11144;43.030;25.108;2022-11-20T06:07:06;46.22;;;26.50;;
21959;SDS011;11144;43.030;25.108;2022-11-20T06:08:39;42.17;;;24.48;;
21959;SDS011;11144;43.030;25.108;2022-11-20T06:10:13;36.05;;;20.20;;
21959;SDS011;11144;43.030;25.108;2022-11-20T06:11:46;25.63;;;15.63;;
21959;SDS011;11144;43.030;25.108;2022-11-20T06:13:19;27.92;;;14.10;;
21959;SDS011;11144;43.030;25.108;2022-11-20T06:14:52;15.23;;;8.80;;
21959;SDS011;11144;43.030;25.108;2022-11-20T06:16:26;13.18;;;6.10;;
21959;SDS011;11144;43.030;25.108;2022-11-20T06:17:59;11.15;;;7.13;;
21959;SDS011;11144;43.030;25.108;2022-11-20T06:19:32;11.57;;;7.72;;
21959;SDS011;11144;43.030;25.108;2022-11-20T06:21:06;11.00;;;7.10;;
21959;SDS011;11144;43.030;25.108;2022-11-20T06:22:41;8.57;;;6.18;;
21959;SDS011;11144;43.030;25.108;2022-11-20T06:24:14;9.00;;;5.53;;
21959;SDS011;11144;43.030;25.108;2022-11-20T06:25:48;8.70;;;5.18;;
21959;SDS011;11144;43.030;25.108;2022-11-20T06:27:20;10.05;;;5.97;;
21959;SDS011;11144;43.030;25.108;2022-11-20T06:28:53;10.63;;;5.18;;
21959;SDS011;11144;43.030;25.108;2022-11-20T06:30:27;13.80;;;6.00;;
21959;SDS011;11144;43.030;25.108;2022-11-20T06:32:00;10.85;;;5.57;;
21959;SDS011;11144;43.030;25.108;2022-11-20T06:33:34;10.45;;;5.82;;
21959;SDS011;11144;43.030;25.108;2022-11-20T06:35:09;28.08;;;16.27;;
21959;SDS011;11144;43.030;25.108;2022-11-20T06:36:42;12.07;;;7.35;;
21959;SDS011;11144;43.030;25.108;2022-11-20T06:38:15;13.00;;;7.90;;
21959;SDS011;11144;43.030;25.108;2022-11-20T06:39:49;18.33;;;7.43;;
21959;SDS011;11144;43.030;25.108;2022-11-20T06:41:22;16.45;;;6.82;;
21959;SDS011;11144;43.030;25.108;2022-11-20T06:42:56;14.65;;;5.50;;
21959;SDS011;11144;43.030;25.108;2022-11-20T06:44:29;12.68;;;6.70;;
21959;SDS011;11144;43.030;25.108;2022-11-20T06:46:03;13.68;;;7.10;;
21959;SDS011;11144;43.030;25.108;2022-11-20T06:47:36;14.15;;;6.43;;
21959;SDS011;11144;43.030;25.108;2022-11-20T06:49:09;16.10;;;9.85;;
21959;SDS011;11144;43.030;25.108;2022-11-20T06:50:44;17.20;;;9.07;;
21959;SDS011;11144;43.030;25.108;2022-11-20T06:52:17;16.58;;;10.60;;
21959;SDS011;11144;43.030;25.108;2022-11-20T06:53:50;14.00;;;8.52;;
21959;SDS011;11144;43.030;25.108;2022-11-20T06:55:24;18.38;;;10.90;;
21959;SDS011;11144;43.030;25.108;2022-11-20T06:56:57;12.88;;;7.90;;
21959;SDS011;11144;43.030;25.108;2022-11-20T06:58:30;14.13;;;8.40;;
21959;SDS011;11144;43.030;25.108;2022-11-20T07:00:04;12.88;;;8.07;;
21959;SDS011;11144;43.030;25.108;2022-11-20T07:01:38;14.70;;;8.20;;
21959;SDS011;11144;43.030;25.108;2022-11-20T07:03:12;15.65;;;8.48;;
21959;SDS011;11144;43.030;25.108;2022-11-20T07:04:45;13.98;;;8.88;;
21959;SDS011;11144;43.030;25.108;2022-11-20T07:06:20;69.60;;;39.20;;
21959;SDS011;11144;43.030;25.108;2022-11-20T07:07:55;104.47;;;58.25;;
21959;SDS011;11144;43.030;25.108;2022-11-20T07:09:28;16.02;;;9.43;;
21959;SDS011;11144;43.030;25.108;2022-11-20T07:11:02;14.85;;;8.93;;
21959;SDS011;11144;43.030;25.108;2022-11-20T07:12:37;15.00;;;9.27;;
21959;SDS011;11144;43.030;25.108;2022-11-20T07:14:10;13.90;;;8.68;;
21959;SDS011;11144;43.030;25.108;2022-11-20T07:15:43;12.70;;;8.45;;
21959;SDS011;11144;43.030;25.108;2022-11-20T07:17:16;18.90;;;7.78;;
21959;SDS011;11144;43.030;25.108;2022-11-20T07:18:49;12.18;;;7.45;;
21959;SDS011;11144;43.030;25.108;2022-11-20T07:20:23;13.23;;;7.80;;
21959;SDS011;11144;43.030;25.108;2022-11-20T07:21:57;15.40;;;9.07;;
21959;SDS011;11144;43.030;25.108;2022-11-20T07:23:30;15.43;;;8.20;;
21959;SDS011;11144;43.030;25.108;2022-11-20T07:25:04;15.68;;;8.52;;
21959;SDS011;11144;43.030;25.108;2022-11-20T07:26:38;13.93;;;8.55;;
21959;SDS011;11144;43.030;25.108;2022-11-20T07:28:11;14.25;;;8.43;;
21959;SDS011;11144;43.030;25.108;2022-11-20T07:29:45;17.20;;;9.95;;
21959;SDS011;11144;43.030;25.108;2022-11-20T07:31:18;17.10;;;9.85;;
21959;SDS011;11144;43.030;25.108;2022-11-20T07:32:51;25.00;;;10.82;;
21959;SDS011;11144;43.030;25.108;2022-11-20T07:34:25;19.00;;;9.93;;
21959;SDS011;11144;43.030;25.108;2022-11-20T07:35:58;21.23;;;10.52;;
21959;SDS011;11144;43.030;25.108;2022-11-20T07:37:34;23.45;;;11.95;;
21959;SDS011;11144;43.030;25.108;2022-11-20T07:39:08;20.40;;;11.63;;
21959;SDS011;11144;43.030;25.108;2022-11-20T07:40:41;24.77;;;13.05;;
21959;SDS011;11144;43.030;25.108;2022-11-20T07:42:14;20.20;;;11.25;;
21959;SDS011;11144;43.030;25.108;2022-11-20T07:43:48;20.40;;;11.52;;
21959;SDS011;11144;43.030;25.108;2022-11-20T07:45:21;20.55;;;11.90;;
21959;SDS011;11144;43.030;25.108;2022-11-20T07:46:56;22.42;;;11.05;;
21959;SDS011;11144;43.030;25.108;2022-11-20T07:48:29;19.27;;;9.77;;
21959;SDS011;11144;43.030;25.108;2022-11-20T07:50:02;20.02;;;11.32;;
21959;SDS011;11144;43.030;25.108;2022-11-20T07:51:36;22.25;;;12.27;;
21959;SDS011;11144;43.030;25.108;2022-11-20T07:53:11;19.17;;;12.52;;
21959;SDS011;11144;43.030;25.108;2022-11-20T07:54:45;19.92;;;12.10;;
21959;SDS011;11144;43.030;25.108;2022-11-20T07:56:18;20.15;;;12.63;;
21959;SDS011;11144;43.030;25.108;2022-11-20T07:57:54;18.30;;;10.27;;
21959;SDS011;11144;43.030;25.108;2022-11-20T07:59:28;19.75;;;11.18;;
21959;SDS011;11144;43.030;25.108;2022-11-20T08:01:04;18.67;;;10.45;;
21959;SDS011;11144;43.030;25.108;2022-11-20T08:02:39;14.75;;;9.20;;
21959;SDS011;11144;43.030;25.108;2022-11-20T08:04:12;20.08;;;10.45;;
21959;SDS011;11144;43.030;25.108;2022-11-20T08:05:47;18.33;;;10.30;;
21959;SDS011;11144;43.030;25.108;2022-11-20T08:07:20;16.67;;;8.27;;
21959;SDS011;11144;43.030;25.108;2022-11-20T08:08:55;19.65;;;9.90;;
21959;SDS011;11144;43.030;25.108;2022-11-20T08:10:28;12.43;;;6.72;;
21959;SDS011;11144;43.030;25.108;2022-11-20T08:12:02;17.08;;;8.20;;
21959;SDS011;11144;43.030;25.108;2022-11-20T08:13:52;16.92;;;9.35;;
21959;SDS011;11144;43.030;25.108;2022-11-20T08:15:47;16.00;;;9.57;;
21959;SDS011;11144;43.030;25.108;2022-11-20T08:17:21;18.40;;;9.50;;
21959;SDS011;11144;43.030;25.108;2022-11-20T08:18:54;16.27;;;9.60;;
21959;SDS011;11144;43.030;25.108;2022-11-20T08:20:28;16.50;;;9.10;;
21959;SDS011;11144;43.030;25.108;2022-11-20T08:22:01;19.55;;;12.20;;
21959;SDS011;11144;43.030;25.108;2022-11-20T08:23:34;20.80;;;11.65;;
21959;SDS011;11144;43.030;25.108;2022-11-20T08:25:09;19.48;;;11.02;;
21959;SDS011;11144;43.030;25.108;2022-11-20T08:26:42;17.98;;;10.18;;
21959;SDS011;11144;43.030;25.108;2022-11-20T08:28:15;67.63;;;38.30;;
21959;SDS011;11144;43.030;25.108;2022-11-20T08:29:52;24.90;;;13.63;;
21959;SDS011;11144;43.030;25.108;2022-11-20T08:31:26;20.95;;;11.10;;
21959;SDS011;11144;43.030;25.108;2022-11-20T08:33:01;19.58;;;11.00;;
21959;SDS011;11144;43.030;25.108;2022-11-20T08:34:36;16.05;;;9.45;;
21959;SDS011;11144;43.030;25.108;2022-11-20T08:36:10;16.50;;;9.85;;
21959;SDS011;11144;43.030;25.108;2022-11-20T08:37:45;15.73;;;10.05;;
21959;SDS011;11144;43.030;25.108;2022-11-20T08:39:19;21.80;;;11.55;;
21959;SDS011;11144;43.030;25.108;2022-11-20T08:40:57;22.48;;;12.73;;
21959;SDS011;11144;43.030;25.108;2022-11-20T08:42:48;20.58;;;12.32;;
21959;SDS011;11144;43.030;25.108;2022-11-20T08:44:22;19.50;;;10.68;;
21959;SDS011;11144;43.030;25.108;2022-11-20T08:45:56;19.95;;;11.32;;
21959;SDS011;11144;43.030;25.108;2022-11-20T08:47:29;18.90;;;10.73;;
21959;SDS011;11144;43.030;25.108;2022-11-20T08:49:03;19.45;;;10.20;;
21959;SDS011;11144;43.030;25.108;2022-11-20T08:50:37;15.18;;;9.57;;
21959;SDS011;11144;43.030;25.108;2022-11-20T08:52:10;18.65;;;11.13;;
21959;SDS011;11144;43.030;25.108;2022-11-20T08:53:43;19.45;;;10.43;;
21959;SDS011;11144;43.030;25.108;2022-11-20T08:55:17;19.48;;;10.85;;
21959;SDS011;11144;43.030;25.108;2022-11-20T08:56:51;20.50;;;11.77;;
21959;SDS011;11144;43.030;25.108;2022-11-20T08:58:25;19.52;;;11.00;;
21959;SDS011;11144;43.030;25.108;2022-11-20T08:59:58;17.02;;;9.85;;
21959;SDS011;11144;43.030;25.108;2022-11-20T09:01:37;19.65;;;10.88;;
21959;SDS011;11144;43.030;25.108;2022-11-20T09:03:10;26.33;;;15.77;;
21959;SDS011;11144;43.030;25.108;2022-11-20T09:04:44;21.35;;;13.07;;
21959;SDS011;11144;43.030;25.108;2022-11-20T09:06:18;21.83;;;13.80;;
21959;SDS011;11144;43.030;25.108;2022-11-20T09:07:51;24.98;;;13.45;;
21959;SDS011;11144;43.030;25.108;2022-11-20T09:09:24;26.80;;;13.43;;
21959;SDS011;11144;43.030;25.108;2022-11-20T09:10:58;23.23;;;13.13;;
21959;SDS011;11144;43.030;25.108;2022-11-20T09:12:33;36.38;;;20.10;;